Time;durP1;ratioP1;P1;durP2;ratioP2;P2;SDS_P1;SDS_P2;PMS_P1;PMS_P2;Temp;Humidity;BMP_temperature;BMP_pressure;BME280_temperature;BME280_humidity;BME280_pressure;Samples;Min_cycle;Max_cycle;Signal;HPM_P1;HPM_P2
2023/08/10 00:01:40;;;;;;;4.03;3.20;;;;;;;;;;5056947;28;20176;-53
2023/08/10 00:04:06;;;;;;;3.78;3.05;;;;;;;;;;5039629;28;20183;-53
2023/08/10 00:06:31;;;;;;;5.75;3.55;;;;;;;;;;5057023;28;20357;-53
2023/08/10 00:08:57;;;;;;;4.18;3.08;;;;;;;;;;5047237;28;20517;-54
2023/08/10 00:11:23;;;;;;;3.30;2.90;;;;;;;;;;5041510;28;20167;-53
2023/08/10 00:13:49;;;;;;;5.20;3.05;;;;;;;;;;5054763;28;20183;-53
2023/08/10 00:16:15;;;;;;;4.55;2.67;;;;;;;;;;5056613;28;20206;-53
2023/08/10 00:18:41;;;;;;;2.88;2.53;;;;;;;;;;5056998;28;20186;-53
2023/08/10 00:21:07;;;;;;;2.90;2.55;;;;;;;;;;5056133;28;20195;-54
2023/08/10 00:23:33;;;;;;;2.85;2.60;;;;;;;;;;5055134;28;20236;-53
2023/08/10 00:25:59;;;;;;;3.13;2.20;;;;;;;;;;5056344;28;20469;-54
2023/08/10 00:28:25;;;;;;;7.55;2.67;;;;;;;;;;5055401;28;20603;-53
2023/08/10 00:30:51;;;;;;;2.85;2.58;;;;;;;;;;5056663;28;20183;-53
2023/08/10 00:33:17;;;;;;;2.80;2.25;;;;;;;;;;5056788;28;20899;-53
2023/08/10 00:35:43;;;;;;;2.50;2.25;;;;;;;;;;5056788;28;20194;-53
2023/08/10 00:38:09;;;;;;;4.50;2.30;;;;;;;;;;5053997;28;20222;-53
2023/08/10 00:40:35;;;;;;;3.33;2.67;;;;;;;;;;5056589;28;20167;-53
2023/08/10 00:43:02;;;;;;;3.45;2.15;;;;;;;;;;5055224;28;20250;-53
2023/08/10 00:45:28;;;;;;;2.95;2.15;;;;;;;;;;5056515;28;20214;-53
2023/08/10 00:47:56;;;;;;;2.85;2.20;;;;;;;;;;5055196;28;20612;-54
2023/08/10 00:50:22;;;;;;;2.67;2.40;;;;;;;;;;5040431;28;20188;-53
2023/08/10 00:52:48;;;;;;;4.10;2.20;;;;;;;;;;5049824;28;20205;-53
2023/08/10 00:55:14;;;;;;;2.95;1.95;;;;;;;;;;5056181;28;20256;-53
2023/08/10 00:57:41;;;;;;;2.05;1.80;;;;;;;;;;5055421;28;20570;-53
2023/08/10 01:00:10;;;;;;;4.00;2.10;;;;;;;;;;5052857;28;20244;-53
2023/08/10 01:02:36;;;;;;;2.97;1.88;;;;;;;;;;5056024;28;20516;-53
2023/08/10 01:05:02;;;;;;;2.30;1.90;;;;;;;;;;5046519;28;20276;-53
2023/08/10 01:07:30;;;;;;;2.60;1.73;;;;;;;;;;5047962;28;20261;-53
2023/08/10 01:10:06;;;;;;;2.53;1.80;;;;;;;;;;5053966;28;20229;-53
2023/08/10 01:12:37;;;;;;;7.78;2.00;;;;;;;;;;5054376;28;20187;-53
2023/08/10 01:15:14;;;;;;;2.55;1.92;;;;;;;;;;5044542;28;20187;-53
2023/08/10 01:17:41;;;;;;;4.45;2.03;;;;;;;;;;5043873;28;20601;-53
2023/08/10 01:20:08;;;;;;;2.13;1.50;;;;;;;;;;5052883;28;20183;-53
2023/08/10 01:22:53;;;;;;;2.13;1.65;;;;;;;;;;5054601;28;20249;-53
2023/08/10 01:25:20;;;;;;;1.58;1.48;;;;;;;;;;5055356;28;20546;-54
2023/08/10 01:27:46;;;;;;;2.42;1.75;;;;;;;;;;5048131;28;20190;-53
2023/08/10 01:30:13;;;;;;;1.90;1.70;;;;;;;;;;5042712;28;20191;-53
2023/08/10 01:32:39;;;;;;;3.08;1.50;;;;;;;;;;5050804;28;20558;-53
2023/08/10 01:35:05;;;;;;;2.20;1.65;;;;;;;;;;5055483;28;20175;-53
2023/08/10 01:37:31;;;;;;;1.90;1.70;;;;;;;;;;5050457;28;20222;-53
2023/08/10 01:39:57;;;;;;;5.18;1.75;;;;;;;;;;5040354;28;20807;-53
2023/08/10 01:42:24;;;;;;;1.60;1.50;;;;;;;;;;5053024;28;20175;-53
2023/08/10 01:44:50;;;;;;;1.90;1.48;;;;;;;;;;5055692;28;20254;-53
2023/08/10 01:47:20;;;;;;;2.08;1.42;;;;;;;;;;5054943;28;20293;-54
2023/08/10 01:49:49;;;;;;;1.75;1.65;;;;;;;;;;5050433;28;20237;-53
2023/08/10 01:52:15;;;;;;;2.30;1.70;;;;;;;;;;5047449;28;20203;-53
2023/08/10 01:54:41;;;;;;;2.58;1.75;;;;;;;;;;5055139;28;20186;-53
2023/08/10 01:57:07;;;;;;;3.75;1.30;;;;;;;;;;5042551;28;20214;-53
2023/08/10 01:59:33;;;;;;;2.55;1.45;;;;;;;;;;5045338;28;20179;-53
2023/08/10 02:01:59;;;;;;;2.47;1.58;;;;;;;;;;5047356;28;20501;-53
2023/08/10 02:04:25;;;;;;;1.48;1.25;;;;;;;;;;5051306;28;20430;-53
2023/08/10 02:06:51;;;;;;;1.92;1.27;;;;;;;;;;5035236;28;20182;-53
2023/08/10 02:09:17;;;;;;;2.47;1.60;;;;;;;;;;5044595;28;20249;-53
2023/08/10 02:11:43;;;;;;;1.42;1.33;;;;;;;;;;5053788;28;20183;-53
2023/08/10 02:14:09;;;;;;;1.52;1.40;;;;;;;;;;5054982;28;20187;-53
2023/08/10 02:16:35;;;;;;;1.80;1.40;;;;;;;;;;5049449;28;20200;-54
2023/08/10 02:19:01;;;;;;;2.20;1.50;;;;;;;;;;5043988;28;20249;-53
2023/08/10 02:21:27;;;;;;;1.98;1.55;;;;;;;;;;5054289;28;20478;-53
2023/08/10 02:23:53;;;;;;;3.13;1.42;;;;;;;;;;5054035;28;20254;-53
2023/08/10 02:26:19;;;;;;;1.67;1.17;;;;;;;;;;5051021;28;20199;-53
2023/08/10 02:28:45;;;;;;;1.48;1.30;;;;;;;;;;5043570;28;20239;-53
2023/08/10 02:31:11;;;;;;;1.88;1.27;;;;;;;;;;5053721;28;20196;-53
2023/08/10 02:33:37;;;;;;;1.27;1.00;;;;;;;;;;5054130;28;20553;-53
2023/08/10 02:36:03;;;;;;;1.75;1.30;;;;;;;;;;5054348;28;20217;-53
2023/08/10 02:38:29;;;;;;;1.30;1.20;;;;;;;;;;5052297;28;20536;-54
2023/08/10 02:40:55;;;;;;;2.47;1.30;;;;;;;;;;5051234;28;20195;-53
2023/08/10 02:43:21;;;;;;;1.45;1.35;;;;;;;;;;5053402;28;20262;-53
2023/08/10 02:45:47;;;;;;;1.42;1.20;;;;;;;;;;5048057;28;20175;-53
2023/08/10 02:48:13;;;;;;;1.90;1.35;;;;;;;;;;5054202;28;20183;-53
2023/08/10 02:50:39;;;;;;;1.40;1.30;;;;;;;;;;5038397;28;20183;-53
2023/08/10 02:53:05;;;;;;;3.00;1.30;;;;;;;;;;5053589;28;20532;-54
2023/08/10 02:55:31;;;;;;;3.10;1.02;;;;;;;;;;5047871;28;20502;-53
2023/08/10 02:57:57;;;;;;;1.42;1.20;;;;;;;;;;5054411;28;20313;-53
2023/08/10 03:00:23;;;;;;;1.95;1.45;;;;;;;;;;5046925;28;20179;-53
2023/08/10 03:02:50;;;;;;;1.65;1.20;;;;;;;;;;5053857;28;20183;-53
2023/08/10 03:05:18;;;;;;;1.30;1.20;;;;;;;;;;5053760;28;20550;-53
2023/08/10 03:07:44;;;;;;;1.50;1.00;;;;;;;;;;5053885;28;20175;-53
2023/08/10 03:10:11;;;;;;;2.78;1.20;;;;;;;;;;5054008;28;20493;-53
2023/08/10 03:12:37;;;;;;;1.27;1.10;;;;;;;;;;5053840;28;20503;-53
2023/08/10 03:15:05;;;;;;;1.17;1.08;;;;;;;;;;5053984;28;20187;-53
2023/08/10 03:17:31;;;;;;;1.33;1.23;;;;;;;;;;5044980;28;20184;-53
2023/08/10 03:19:57;;;;;;;1.15;1.00;;;;;;;;;;5043792;28;20641;-53
2023/08/10 03:22:26;;;;;;;1.80;1.10;;;;;;;;;;5042525;28;20245;-53
2023/08/10 03:24:52;;;;;;;4.95;1.30;;;;;;;;;;5034460;28;20184;-53
2023/08/10 03:27:18;;;;;;;3.03;1.20;;;;;;;;;;5053903;28;20194;-53
2023/08/10 03:29:44;;;;;;;1.33;1.23;;;;;;;;;;5054034;28;20175;-53
2023/08/10 03:32:10;;;;;;;1.42;1.05;;;;;;;;;;5053704;28;20197;-53
2023/08/10 03:34:35;;;;;;;1.33;1.10;;;;;;;;;;5049360;28;20176;-53
2023/08/10 03:37:02;;;;;;;2.05;1.30;;;;;;;;;;5034533;28;20279;-53
2023/08/10 03:39:28;;;;;;;1.70;1.00;;;;;;;;;;5034201;28;20180;-53
2023/08/10 03:41:54;;;;;;;1.30;1.20;;;;;;;;;;5053355;28;20194;-53
2023/08/10 03:44:20;;;;;;;1.23;1.13;;;;;;;;;;5053277;28;20270;-54
2023/08/10 03:46:46;;;;;;;6.05;1.33;;;;;;;;;;5036369;28;20222;-53
2023/08/10 03:49:12;;;;;;;2.35;1.33;;;;;;;;;;5052464;28;20195;-53
2023/08/10 03:51:38;;;;;;;2.90;1.48;;;;;;;;;;5049832;28;20201;-53
2023/08/10 03:54:04;;;;;;;2.47;1.10;;;;;;;;;;5053357;28;20262;-53
2023/08/10 03:56:30;;;;;;;2.83;1.30;;;;;;;;;;5053349;28;20278;-53
2023/08/10 03:58:56;;;;;;;1.98;1.25;;;;;;;;;;5053538;28;20167;-53
2023/08/10 04:01:22;;;;;;;3.92;1.25;;;;;;;;;;5067691;28;20211;-53
2023/08/10 04:03:48;;;;;;;2.85;1.92;;;;;;;;;;5054586;28;20222;-53
2023/08/10 04:06:14;;;;;;;2.13;0.93;;;;;;;;;;5073157;28;20179;-53
2023/08/10 04:08:40;;;;;;;1.83;0.95;;;;;;;;;;5039377;28;20176;-53
2023/08/10 04:11:06;;;;;;;1.52;1.15;;;;;;;;;;5041305;28;20176;-53
2023/08/10 04:13:32;;;;;;;0.85;0.82;;;;;;;;;;5036491;28;20180;-53
2023/08/10 04:15:58;;;;;;;1.75;1.08;;;;;;;;;;5037328;28;20175;-53
2023/08/10 04:18:24;;;;;;;1.30;1.15;;;;;;;;;;5050502;28;20215;-53
2023/08/10 04:20:50;;;;;;;4.50;1.30;;;;;;;;;;5046246;28;20176;-53
2023/08/10 04:23:19;;;;;;;2.97;1.00;;;;;;;;;;5037325;28;20215;-53
2023/08/10 04:25:44;;;;;;;2.47;1.90;;;;;;;;;;5051845;28;20176;-53
2023/08/10 04:28:10;;;;;;;1.50;1.10;;;;;;;;;;5037105;28;20254;-53
2023/08/10 04:30:36;;;;;;;2.45;1.20;;;;;;;;;;5036959;28;20180;-53
2023/08/10 04:33:03;;;;;;;2.08;1.20;;;;;;;;;;5048889;28;20179;-52
2023/08/10 04:35:29;;;;;;;1.95;1.02;;;;;;;;;;5045091;28;20210;-52
2023/08/10 04:37:55;;;;;;;1.15;0.90;;;;;;;;;;5051083;28;20202;-52
2023/08/10 04:40:21;;;;;;;1.58;1.05;;;;;;;;;;5039019;28;20325;-52
2023/08/10 04:42:48;;;;;;;1.73;1.10;;;;;;;;;;5045998;28;20187;-52
2023/08/10 04:45:14;;;;;;;1.25;1.15;;;;;;;;;;5054351;28;20201;-52
2023/08/10 04:47:40;;;;;;;1.10;1.00;;;;;;;;;;5056473;28;20178;-52
2023/08/10 04:50:07;;;;;;;1.70;0.90;;;;;;;;;;5053880;28;20488;-53
2023/08/10 04:52:33;;;;;;;1.98;1.05;;;;;;;;;;5040104;28;20198;-53
2023/08/10 04:54:58;;;;;;;0.90;0.80;;;;;;;;;;5050615;28;20262;-53
2023/08/10 04:57:25;;;;;;;2.53;0.95;;;;;;;;;;5055235;28;20249;-53
2023/08/10 04:59:50;;;;;;;1.25;1.05;;;;;;;;;;5054875;28;20199;-52
2023/08/10 05:02:17;;;;;;;1.40;1.20;;;;;;;;;;5049008;28;20227;-53
2023/08/10 05:04:43;;;;;;;4.00;1.30;;;;;;;;;;5036308;28;20519;-53
2023/08/10 05:07:08;;;;;;;1.27;0.90;;;;;;;;;;5036226;28;20547;-53
2023/08/10 05:09:34;;;;;;;3.25;0.68;;;;;;;;;;5034115;28;20229;-53
2023/08/10 05:12:00;;;;;;;5.32;1.40;;;;;;;;;;5034885;28;20187;-48
2023/08/10 05:14:26;;;;;;;10.20;1.80;;;;;;;;;;5044814;28;20271;-50
2023/08/10 05:16:52;;;;;;;8.45;2.55;;;;;;;;;;5054957;28;20199;-48
2023/08/10 05:19:18;;;;;;;7.47;1.80;;;;;;;;;;5054313;28;20175;-46
2023/08/10 05:21:44;;;;;;;8.15;1.52;;;;;;;;;;5042844;28;20188;-49
2023/08/10 05:24:10;;;;;;;6.13;1.52;;;;;;;;;;5042391;28;20183;-47
2023/08/10 05:26:36;;;;;;;5.05;1.30;;;;;;;;;;5055626;28;20262;-50
2023/08/10 05:29:02;;;;;;;4.75;2.00;;;;;;;;;;5055584;28;20191;-49
2023/08/10 05:31:28;;;;;;;4.50;1.48;;;;;;;;;;5036825;28;20209;-53
2023/08/10 05:33:54;;;;;;;3.28;1.20;;;;;;;;;;5035998;28;20176;-50
2023/08/10 05:36:20;;;;;;;4.30;1.52;;;;;;;;;;5052050;28;20187;-56
2023/08/10 05:38:46;;;;;;;4.78;1.15;;;;;;;;;;5055242;28;20186;-49
2023/08/10 05:41:12;;;;;;;3.58;1.15;;;;;;;;;;5055237;28;20191;-49
2023/08/10 05:43:39;;;;;;;6.28;1.30;;;;;;;;;;5055059;28;20183;-50
2023/08/10 05:46:05;;;;;;;8.77;1.63;;;;;;;;;;5055308;28;20170;-51
2023/08/10 05:48:31;;;;;;;1.10;1.00;;;;;;;;;;5054847;28;20187;-51
2023/08/10 05:50:57;;;;;;;12.35;1.60;;;;;;;;;;5051171;28;20191;-50
2023/08/10 05:53:23;;;;;;;3.30;1.40;;;;;;;;;;5038200;28;20266;-51
2023/08/10 05:55:50;;;;;;;3.05;1.30;;;;;;;;;;5044680;28;20175;-50
2023/08/10 05:58:16;;;;;;;1.92;1.20;;;;;;;;;;5055047;28;20582;-50
2023/08/10 06:00:42;;;;;;;2.97;1.63;;;;;;;;;;5054640;28;20187;-50
2023/08/10 06:03:08;;;;;;;2.53;1.17;;;;;;;;;;5054124;28;20211;-50
2023/08/10 06:05:34;;;;;;;3.35;1.23;;;;;;;;;;5048120;28;20249;-50
2023/08/10 06:08:00;;;;;;;6.97;1.40;;;;;;;;;;5055020;28;20274;-50
2023/08/10 06:10:26;;;;;;;1.15;1.05;;;;;;;;;;5045628;28;20183;-50
2023/08/10 06:12:52;;;;;;;2.05;1.00;;;;;;;;;;5034816;28;20180;-50
2023/08/10 06:15:18;;;;;;;5.47;1.55;;;;;;;;;;5034893;28;20187;-51
2023/08/10 06:17:44;;;;;;;7.43;1.92;;;;;;;;;;5049539;28;20203;-50
2023/08/10 06:20:13;;;;;;;7.25;2.42;;;;;;;;;;5054011;28;20179;-51
2023/08/10 06:22:39;;;;;;;8.63;2.85;;;;;;;;;;5052625;28;20278;-51
2023/08/10 06:25:05;;;;;;;7.05;2.17;;;;;;;;;;5049722;28;20274;-50
2023/08/10 06:27:32;;;;;;;7.25;1.83;;;;;;;;;;5054568;28;20232;-50
2023/08/10 06:29:58;;;;;;;6.65;2.33;;;;;;;;;;5053688;28;20582;-50
2023/08/10 06:32:25;;;;;;;8.98;2.00;;;;;;;;;;5054133;28;20184;-50
2023/08/10 06:34:51;;;;;;;5.60;2.20;;;;;;;;;;5062353;28;20182;-50
2023/08/10 06:37:17;;;;;;;9.25;1.90;;;;;;;;;;5050360;28;20590;-50
2023/08/10 06:39:43;;;;;;;4.47;1.90;;;;;;;;;;5042657;28;20273;-50
2023/08/10 06:42:09;;;;;;;7.07;1.67;;;;;;;;;;5037038;28;20321;-51
2023/08/10 06:44:35;;;;;;;4.75;1.17;;;;;;;;;;5042004;28;20198;-51
2023/08/10 06:47:01;;;;;;;3.00;1.27;;;;;;;;;;5053723;28;20175;-50
2023/08/10 06:49:27;;;;;;;6.35;1.58;;;;;;;;;;5046909;28;20175;-50
2023/08/10 06:51:53;;;;;;;4.30;1.65;;;;;;;;;;5042618;28;20188;-50
2023/08/10 06:54:20;;;;;;;3.20;1.55;;;;;;;;;;5052568;28;20202;-50
2023/08/10 06:56:46;;;;;;;7.10;1.55;;;;;;;;;;5043118;28;20203;-50
2023/08/10 06:59:12;;;;;;;5.10;1.50;;;;;;;;;;5047592;28;20183;-51
2023/08/10 07:01:38;;;;;;;2.95;1.33;;;;;;;;;;5051859;28;20179;-50
2023/08/10 07:04:04;;;;;;;3.30;1.30;;;;;;;;;;5053147;28;20430;-50
2023/08/10 07:06:31;;;;;;;2.55;1.10;;;;;;;;;;5053454;28;20187;-51
2023/08/10 07:08:57;;;;;;;2.78;1.13;;;;;;;;;;5054312;28;20163;-50
2023/08/10 07:11:23;;;;;;;5.95;1.40;;;;;;;;;;5053534;28;20270;-50
2023/08/10 07:13:49;;;;;;;3.63;1.70;;;;;;;;;;5048307;28;20267;-50
2023/08/10 07:16:15;;;;;;;3.58;1.70;;;;;;;;;;5034467;28;20211;-50
2023/08/10 07:18:42;;;;;;;2.88;1.25;;;;;;;;;;5047318;28;20230;-51
2023/08/10 07:21:07;;;;;;;3.22;1.38;;;;;;;;;;5042475;28;20494;-51
2023/08/10 07:23:33;;;;;;;2.97;1.50;;;;;;;;;;5053118;28;20183;-50
2023/08/10 07:25:59;;;;;;;2.10;1.40;;;;;;;;;;5053759;28;20187;-50
2023/08/10 07:28:26;;;;;;;2.08;1.13;;;;;;;;;;5045659;28;20184;-51
2023/08/10 07:30:52;;;;;;;1.35;1.15;;;;;;;;;;5049661;28;20186;-51
2023/08/10 07:33:18;;;;;;;4.00;1.35;;;;;;;;;;5053178;28;20269;-51
2023/08/10 07:35:44;;;;;;;2.92;1.02;;;;;;;;;;5043837;28;20192;-51
2023/08/10 07:38:10;;;;;;;1.27;1.02;;;;;;;;;;5040644;28;20199;-51
2023/08/10 07:40:36;;;;;;;2.35;0.90;;;;;;;;;;5044524;28;20547;-51
2023/08/10 07:43:02;;;;;;;1.55;1.15;;;;;;;;;;5052568;28;20211;-51
2023/08/10 07:45:28;;;;;;;2.97;0.95;;;;;;;;;;5051434;28;20601;-50
2023/08/10 07:47:54;;;;;;;1.88;0.90;;;;;;;;;;5055677;28;20187;-51
2023/08/10 07:50:20;;;;;;;1.27;1.10;;;;;;;;;;5049619;28;20180;-50
2023/08/10 07:52:46;;;;;;;1.33;1.00;;;;;;;;;;5045119;28;20233;-50
2023/08/10 07:55:13;;;;;;;1.10;1.00;;;;;;;;;;5055765;28;20186;-50
2023/08/10 07:57:39;;;;;;;1.05;0.90;;;;;;;;;;5056381;28;20195;-50
2023/08/10 08:00:06;;;;;;;3.13;1.10;;;;;;;;;;5057191;28;20164;-51
2023/08/10 08:02:33;;;;;;;1.83;1.05;;;;;;;;;;5056387;28;20292;-51
2023/08/10 08:04:59;;;;;;;0.70;0.70;;;;;;;;;;5047672;28;20286;-52
2023/08/10 08:07:25;;;;;;;1.95;1.05;;;;;;;;;;5045667;28;20544;-51
2023/08/10 08:09:52;;;;;;;0.80;0.80;;;;;;;;;;5037207;28;20271;-51
2023/08/10 08:12:18;;;;;;;1.83;1.02;;;;;;;;;;5049376;28;20273;-51
2023/08/10 08:14:44;;;;;;;3.13;1.33;;;;;;;;;;5055671;28;20211;-51
2023/08/10 08:17:10;;;;;;;1.85;1.00;;;;;;;;;;5055856;28;20629;-51
2023/08/10 08:19:37;;;;;;;1.20;0.90;;;;;;;;;;5056470;28;20179;-51
2023/08/10 08:22:03;;;;;;;13.52;1.67;;;;;;;;;;5041398;28;20226;-51
2023/08/10 08:24:29;;;;;;;2.83;1.05;;;;;;;;;;5038766;28;20174;-51
2023/08/10 08:26:56;;;;;;;1.15;1.05;;;;;;;;;;5055942;28;20179;-51
2023/08/10 08:29:22;;;;;;;1.38;1.10;;;;;;;;;;5056768;28;20190;-51
2023/08/10 08:31:48;;;;;;;2.28;1.20;;;;;;;;;;5055569;28;20179;-50
2023/08/10 08:34:15;;;;;;;1.98;1.20;;;;;;;;;;5056073;28;20201;-51
2023/08/10 08:36:41;;;;;;;1.88;1.13;;;;;;;;;;5047917;28;20493;-51
2023/08/10 08:39:07;;;;;;;4.88;1.85;;;;;;;;;;5046231;28;20171;-51
2023/08/10 08:41:36;;;;;;;3.60;1.45;;;;;;;;;;5055939;28;20178;-51
2023/08/10 08:44:04;;;;;;;1.77;1.35;;;;;;;;;;5051192;28;20570;-52
2023/08/10 08:46:31;;;;;;;2.78;1.45;;;;;;;;;;5056660;28;20191;-51
2023/08/10 08:48:57;;;;;;;1.95;1.38;;;;;;;;;;5054237;28;20183;-51
2023/08/10 08:51:24;;;;;;;2.22;1.40;;;;;;;;;;5051307;28;20179;-51
2023/08/10 08:53:51;;;;;;;1.52;1.10;;;;;;;;;;5054246;28;20225;-51
2023/08/10 08:56:17;;;;;;;2.10;1.40;;;;;;;;;;5037862;28;20296;-51
2023/08/10 08:58:43;;;;;;;2.60;1.35;;;;;;;;;;5044631;28;20313;-51
2023/08/10 09:01:09;;;;;;;2.15;1.63;;;;;;;;;;5049285;28;20270;-51
2023/08/10 09:03:35;;;;;;;2.50;1.67;;;;;;;;;;5034883;28;20701;-51
2023/08/10 09:06:01;;;;;;;3.05;1.40;;;;;;;;;;5048171;28;20183;-51
2023/08/10 09:08:27;;;;;;;1.70;1.45;;;;;;;;;;5055301;28;20559;-51
2023/08/10 09:10:54;;;;;;;1.90;1.63;;;;;;;;;;5053649;28;20187;-50
2023/08/10 09:13:24;;;;;;;2.15;1.65;;;;;;;;;;5055684;28;20186;-51
2023/08/10 09:16:05;;;;;;;3.22;1.10;;;;;;;;;;5055399;28;20252;-50
2023/08/10 09:18:34;;;;;;;1.50;1.40;;;;;;;;;;5055997;28;20199;-51
2023/08/10 09:21:15;;;;;;;3.08;1.88;;;;;;;;;;5044586;28;20613;-51
2023/08/10 09:23:46;;;;;;;1.75;1.60;;;;;;;;;;5038153;28;20369;-51
2023/08/10 09:26:12;;;;;;;3.70;1.45;;;;;;;;;;5055445;28;20206;-51
2023/08/10 09:28:38;;;;;;;1.65;1.52;;;;;;;;;;5055911;28;20179;-51
2023/08/10 09:31:07;;;;;;;3.85;1.80;;;;;;;;;;5055836;28;20284;-50
2023/08/10 09:33:33;;;;;;;2.50;1.92;;;;;;;;;;5037229;28;20211;-51
2023/08/10 09:36:00;;;;;;;1.60;1.50;;;;;;;;;;5054485;28;20330;-51
2023/08/10 09:38:26;;;;;;;2.30;1.55;;;;;;;;;;5055169;28;20496;-51
2023/08/10 09:41:06;;;;;;;2.50;1.60;;;;;;;;;;5055108;28;20175;-51
2023/08/10 09:43:32;;;;;;;2.97;1.80;;;;;;;;;;5053542;28;20175;-51
2023/08/10 09:46:05;;;;;;;2.50;1.60;;;;;;;;;;5053479;28;20175;-51
2023/08/10 09:48:35;;;;;;;1.80;1.70;;;;;;;;;;5055302;28;20545;-51
2023/08/10 09:51:02;;;;;;;2.10;1.80;;;;;;;;;;5044492;28;20180;-51
2023/08/10 09:53:29;;;;;;;1.65;1.55;;;;;;;;;;5045547;28;20183;-51
2023/08/10 09:55:55;;;;;;;2.67;1.70;;;;;;;;;;5054789;28;20270;-51
2023/08/10 09:58:21;;;;;;;2.97;1.90;;;;;;;;;;5049663;28;20195;-51
2023/08/10 10:00:49;;;;;;;2.58;1.80;;;;;;;;;;5045331;28;20179;-51
2023/08/10 10:03:15;;;;;;;2.85;1.95;;;;;;;;;;5050668;28;20184;-51
2023/08/10 10:05:42;;;;;;;2.15;1.95;;;;;;;;;;5050415;28;20569;-51
2023/08/10 10:08:08;;;;;;;2.25;1.90;;;;;;;;;;5055138;28;20179;-51
2023/08/10 10:10:35;;;;;;;2.58;1.77;;;;;;;;;;5054931;28;20270;-51
2023/08/10 10:13:02;;;;;;;2.05;1.70;;;;;;;;;;5052256;28;20193;-52
2023/08/10 10:15:28;;;;;;;2.65;2.00;;;;;;;;;;5053333;28;20442;-51
2023/08/10 10:17:54;;;;;;;2.65;1.92;;;;;;;;;;5054903;28;20222;-51
2023/08/10 10:20:20;;;;;;;2.03;1.88;;;;;;;;;;5046413;28;20176;-51
2023/08/10 10:22:46;;;;;;;3.83;1.80;;;;;;;;;;5041431;28;20187;-52
2023/08/10 10:25:15;;;;;;;2.83;1.90;;;;;;;;;;5047391;28;20264;-51
2023/08/10 10:27:41;;;;;;;8.25;2.00;;;;;;;;;;5053371;28;20186;-51
2023/08/10 10:30:15;;;;;;;4.85;2.03;;;;;;;;;;5049180;28;20264;-51
2023/08/10 10:32:45;;;;;;;3.00;1.90;;;;;;;;;;5051982;28;20191;-51
2023/08/10 10:35:13;;;;;;;4.65;2.00;;;;;;;;;;5042181;28;20179;-51
2023/08/10 10:37:39;;;;;;;2.08;1.88;;;;;;;;;;5048770;28;20191;-51
2023/08/10 10:40:16;;;;;;;2.25;1.90;;;;;;;;;;5053909;28;20189;-51
2023/08/10 10:43:01;;;;;;;3.40;2.08;;;;;;;;;;5045449;28;20458;-55
2023/08/10 10:45:27;;;;;;;3.40;1.92;;;;;;;;;;5037002;28;20171;-55
2023/08/10 10:47:55;;;;;;;2.88;2.03;;;;;;;;;;5054071;28;20191;-57
2023/08/10 10:53:07;;;;;;;2.78;1.98;;;;;;;;;;5199326;23;20488;-51
2023/08/10 10:55:35;;;;;;;3.60;2.20;;;;;;;;;;4994421;28;20177;-52
2023/08/10 10:58:02;;;;;;;2.78;1.92;;;;;;;;;;5008476;28;20288;-60
2023/08/10 11:00:29;;;;;;;2.40;1.90;;;;;;;;;;4991483;28;20189;-55
2023/08/10 11:02:55;;;;;;;3.25;2.08;;;;;;;;;;4995188;28;20219;-53
2023/08/10 11:05:21;;;;;;;4.03;1.65;;;;;;;;;;5010708;28;20181;-50
2023/08/10 11:07:48;;;;;;;4.50;2.40;;;;;;;;;;4994922;28;20189;-52
2023/08/10 11:10:15;;;;;;;4.32;1.67;;;;;;;;;;4984306;28;20196;-52
2023/08/10 11:12:42;;;;;;;4.88;1.83;;;;;;;;;;5004367;28;20267;-53
2023/08/10 11:15:09;;;;;;;2.63;1.80;;;;;;;;;;4998706;28;20573;-50
2023/08/10 11:17:39;;;;;;;1.73;1.63;;;;;;;;;;4994744;28;20599;-50
2023/08/10 11:20:14;;;;;;;2.38;1.90;;;;;;;;;;4994963;28;20221;-55
2023/08/10 11:22:41;;;;;;;2.80;1.98;;;;;;;;;;4991457;28;20411;-59
2023/08/10 11:25:14;;;;;;;2.53;1.70;;;;;;;;;;4995717;28;20202;-49
2023/08/10 11:27:41;;;;;;;2.25;2.05;;;;;;;;;;5010585;28;20268;-45
2023/08/10 11:30:09;;;;;;;4.75;2.42;;;;;;;;;;5009728;28;20517;-48
2023/08/10 11:32:38;;;;;;;1.98;1.88;;;;;;;;;;4995752;28;20196;-53
2023/08/10 11:35:04;;;;;;;3.13;2.15;;;;;;;;;;4989997;28;20209;-50
2023/08/10 11:37:31;;;;;;;2.90;1.80;;;;;;;;;;5005254;28;20200;-46
2023/08/10 11:40:07;;;;;;;3.67;1.77;;;;;;;;;;5000455;28;20243;-40
2023/08/10 11:42:36;;;;;;;5.75;1.95;;;;;;;;;;4988103;28;20448;-41
2023/08/10 11:45:19;;;;;;;2.28;1.90;;;;;;;;;;4999290;28;20206;-41
2023/08/10 11:47:46;;;;;;;1.90;1.80;;;;;;;;;;4997972;28;20232;-40
2023/08/10 11:50:14;;;;;;;2.80;1.80;;;;;;;;;;4995338;28;20632;-40
2023/08/10 11:52:41;;;;;;;2.00;1.80;;;;;;;;;;4997877;28;20209;-40
2023/08/10 11:55:12;;;;;;;3.33;2.20;;;;;;;;;;4994798;28;20218;-41
2023/08/10 11:57:38;;;;;;;3.20;1.88;;;;;;;;;;5000122;28;20212;-41
2023/08/10 12:00:23;;;;;;;4.25;1.83;;;;;;;;;;4994873;28;20192;-40
2023/08/10 12:03:11;;;;;;;2.92;1.50;;;;;;;;;;4985222;28;20180;-40
2023/08/10 12:05:37;;;;;;;2.33;1.83;;;;;;;;;;4995109;28;20201;-49
2023/08/10 12:08:05;;;;;;;5.60;2.05;;;;;;;;;;5008367;28;20184;-55
2023/08/10 12:10:35;;;;;;;7.75;1.98;;;;;;;;;;5007465;28;20184;-54
2023/08/10 12:13:02;;;;;;;5.50;2.33;;;;;;;;;;4994271;28;20204;-47
2023/08/10 12:15:30;;;;;;;3.30;1.90;;;;;;;;;;5005693;28;20185;-55
2023/08/10 12:17:56;;;;;;;5.63;1.77;;;;;;;;;;5014456;28;20245;-51
2023/08/10 12:20:22;;;;;;;3.67;1.88;;;;;;;;;;5000469;28;20188;-51
2023/08/10 12:22:48;;;;;;;9.43;1.98;;;;;;;;;;4995184;28;20205;-51
2023/08/10 12:25:14;;;;;;;1.60;1.40;;;;;;;;;;4995914;28;20544;-51
2023/08/10 12:27:40;;;;;;;2.42;1.83;;;;;;;;;;4994803;28;20595;-51
2023/08/10 12:30:08;;;;;;;2.95;1.60;;;;;;;;;;4994206;28;20193;-51
2023/08/10 12:32:34;;;;;;;2.10;1.60;;;;;;;;;;4999159;28;20185;-51
2023/08/10 12:35:00;;;;;;;1.75;1.60;;;;;;;;;;4986420;28;20194;-51
2023/08/10 12:37:26;;;;;;;1.95;1.77;;;;;;;;;;4988550;28;20233;-51
2023/08/10 12:39:54;;;;;;;1.77;1.67;;;;;;;;;;4993499;28;20320;-51
2023/08/10 12:42:20;;;;;;;3.63;1.92;;;;;;;;;;4994937;28;20185;-51
2023/08/10 12:44:45;;;;;;;3.55;1.80;;;;;;;;;;4993718;28;20192;-51
2023/08/10 12:47:11;;;;;;;2.83;1.88;;;;;;;;;;4999253;28;20193;-50
2023/08/10 12:49:38;;;;;;;3.22;1.83;;;;;;;;;;4992303;28;20225;-49
2023/08/10 12:52:04;;;;;;;2.65;2.00;;;;;;;;;;4995899;28;20567;-51
2023/08/10 12:54:30;;;;;;;2.78;1.42;;;;;;;;;;4988489;28;20193;-50
2023/08/10 12:56:56;;;;;;;2.22;1.83;;;;;;;;;;4991623;28;20596;-51
2023/08/10 12:59:22;;;;;;;3.08;1.67;;;;;;;;;;4990874;28;21358;-51
2023/08/10 13:01:51;;;;;;;3.72;1.90;;;;;;;;;;4994692;28;20251;-51
2023/08/10 13:04:17;;;;;;;1.77;1.67;;;;;;;;;;5003336;28;20230;-51
2023/08/10 13:06:43;;;;;;;2.05;1.48;;;;;;;;;;4990567;28;20177;-50
2023/08/10 13:09:09;;;;;;;2.42;1.90;;;;;;;;;;5004961;28;20480;-50
2023/08/10 13:11:36;;;;;;;3.95;1.67;;;;;;;;;;4990859;28;20173;-51
2023/08/10 13:14:02;;;;;;;1.88;1.73;;;;;;;;;;4996583;28;20240;-51
2023/08/10 13:16:28;;;;;;;3.15;2.00;;;;;;;;;;4995816;28;20239;-51
2023/08/10 13:18:54;;;;;;;3.67;1.80;;;;;;;;;;4998510;28;20209;-51
2023/08/10 13:21:20;;;;;;;3.17;1.80;;;;;;;;;;4995797;28;20192;-51
2023/08/10 13:23:45;;;;;;;2.90;1.60;;;;;;;;;;4991032;28;20256;-51
2023/08/10 13:26:11;;;;;;;1.90;1.70;;;;;;;;;;4989531;28;20177;-51
2023/08/10 13:28:37;;;;;;;1.70;1.60;;;;;;;;;;5000031;28;20653;-51
2023/08/10 13:31:03;;;;;;;2.03;1.83;;;;;;;;;;4992704;28;20638;-50
2023/08/10 13:33:31;;;;;;;3.33;2.28;;;;;;;;;;4993091;28;20771;-51
2023/08/10 13:35:57;;;;;;;2.97;1.95;;;;;;;;;;4996303;28;20185;-50
2023/08/10 13:38:23;;;;;;;3.28;1.70;;;;;;;;;;4995566;28;20220;-51
2023/08/10 13:40:49;;;;;;;2.83;1.70;;;;;;;;;;4995425;28;20819;-50
2023/08/10 13:43:16;;;;;;;1.98;1.77;;;;;;;;;;5001757;28;20205;-50
2023/08/10 13:45:42;;;;;;;2.05;1.70;;;;;;;;;;4989566;28;20232;-50
2023/08/10 13:48:09;;;;;;;1.73;1.63;;;;;;;;;;4989778;28;20259;-50
2023/08/10 13:50:35;;;;;;;2.45;1.88;;;;;;;;;;4991489;28;20181;-50
2023/08/10 13:53:01;;;;;;;1.73;1.63;;;;;;;;;;4994647;28;20530;-50
2023/08/10 13:55:28;;;;;;;1.92;1.73;;;;;;;;;;4994546;28;20200;-51
2023/08/10 13:57:53;;;;;;;2.78;1.70;;;;;;;;;;4999737;28;20279;-50
2023/08/10 14:00:20;;;;;;;2.72;2.03;;;;;;;;;;5002963;28;20480;-49
2023/08/10 14:02:46;;;;;;;5.78;2.00;;;;;;;;;;4990162;28;20190;-49
2023/08/10 14:05:13;;;;;;;2.50;2.00;;;;;;;;;;4997563;28;20593;-49
2023/08/10 14:07:39;;;;;;;2.33;2.13;;;;;;;;;;4991953;28;20189;-49
2023/08/10 14:10:05;;;;;;;2.72;1.98;;;;;;;;;;4988558;28;20181;-49
2023/08/10 14:12:31;;;;;;;2.38;2.15;;;;;;;;;;4990375;28;20232;-50
2023/08/10 14:14:57;;;;;;;2.28;1.90;;;;;;;;;;4991362;28;20220;-51
2023/08/10 14:17:23;;;;;;;2.67;2.28;;;;;;;;;;4990356;28;20212;-50
2023/08/10 14:19:49;;;;;;;2.40;2.00;;;;;;;;;;4984066;28;20196;-50
2023/08/10 14:22:15;;;;;;;2.05;1.90;;;;;;;;;;4990900;28;20480;-50
2023/08/10 14:24:41;;;;;;;2.03;1.83;;;;;;;;;;4991594;28;20705;-50
2023/08/10 14:27:07;;;;;;;2.42;2.20;;;;;;;;;;4989371;28;20185;-50
2023/08/10 14:29:33;;;;;;;2.05;1.85;;;;;;;;;;4982499;28;20181;-51
2023/08/10 14:31:59;;;;;;;1.75;1.60;;;;;;;;;;4985323;28;20189;-50
2023/08/10 14:34:25;;;;;;;2.22;2.03;;;;;;;;;;5001563;28;20189;-50
2023/08/10 14:36:51;;;;;;;2.25;2.05;;;;;;;;;;4983005;28;20276;-50
2023/08/10 14:39:18;;;;;;;2.05;1.85;;;;;;;;;;4994510;28;20189;-50
2023/08/10 14:41:49;;;;;;;4.20;2.10;;;;;;;;;;5001221;28;20448;-50
2023/08/10 14:44:15;;;;;;;2.20;1.85;;;;;;;;;;5004953;28;20315;-50